Lipan, TX (76462)

11:47 PM CST on December 17, 2014 (GMT -0600)
JBarP Ranch | Change Station
CLOSE
Current Station
Personal Weather Station
Location: Lipan, TX
Elevation: 1020 ft
Nearby Weather Stations

Elev 1020 ft 32.52 °N, 98.17 °W | Updated 6 minutes ago

Overcast
Overcast
44.4 °F
Feels Like 44 °F
N
1.7
Wind Variable Wind from SSE

Today
High -- | Low -- °F
--% Chance of Precip.
Yesterday
High -- | Low -- °F
Precip. -- in
7:27 AM 5:29 PM
Waning Crescent, 17% visible
Pressure 30.16 in
Visibility 3.0 miles
Clouds Overcast 400 ft
Windchill 44 °F
Dew Point 42 °F
Humidity 93%
Rainfall 0.09 in
Snow Depth Not available.
UV 0 out of 12
Pollen 8.20 out of 12
Air Quality Not available.
Flu Activity Not available.
METAR KGDJ 180535Z AUTO 11005KT 3SM BR OVC004 07/06 A3016 RMK AO2 T00730063

More Conditions Fewer Conditions

Pressure 30.16 in
Visibility 3.0 miles
Clouds Overcast 400 ft
Windchill 44 °F
Dew Point 42 °F
Humidity 93%
Rainfall 0.09 in
Snow Depth Not available.
UV 0 out of 12
Pollen 8.20 out of 12
Air Quality Not available.
Flu Activity Not available.
METAR KGDJ 180535Z AUTO 11005KT 3SM BR OVC004 07/06 A3016 RMK AO2 T00730063

More Conditions Fewer Conditions

Nowcast | as of 9:05 PM CST on December 17, 2014

Light rain...scattered showers and some drizzle will continue along and east of a Gainesville to Stephenville to Lampasas line through midnight. Additional rainfall will not amount to much...with less than one tenth of an inch possible. The area will move slowly east at 15 mph. In additional...it will remain cloudy...damp and cold overnight with some fog developing in the late night hours.

×

10-Day Weather Forecast

Almanac

Astronomy

Dec. 17, 2014 Rise Set
Actual Time
Civil Twilight
Nautical Twilight
Astronomical Twilight
Moon
Length of Visible Light
Length of Day
Tomorrow will be .
, % of the Moon is Illuminated

Today's Extremes

State Highs State Lows

Community

WunderPhotos

Upload Photos

1,778,896 photos uploaded!

WunderBlogs® & News

Nearby

Air Quality

  Air Quality AQ Index Pollutant
Not available.

Snow Depth

Station Depth Elevation

Earthquake Activity

City Distance Mag. Time & Date
Minimum magnitude displayed is 2.5.

Coastal Water Temperatures

Place Temperature

Nearby Weather Stations